Main page
METAR-TAF:

METAR-TAF

Airports :

Chicago Executive Airport

Wheeling / Prospect Heights, Illinois, United States

latitude: 42-07-15N, longitude: 087-54-17W, elevation: 646 ft

Current weather observation

The report was made 33 minutes ago, at 02:52 UTC
Calm wind
Temperature 66°F
Humidity 43%
Pressure 29.89 in. Hg
Visibility: 10 miles
Clear sky

METAR: KPWK 230252Z 00000KT 10SM CLR 19/06 A2989 RMK AO2 SLP119 T01890061 51023

Time: 22:25 (03:25 UTC)


TAF: missing

Weather observations and forecasts of more than 4000 airports (METAR and TAF reports).

The available stations are represented by yellow and red dots on the map.

Hover mouse over dot to see the name of the station.

Then click to see weather observations and forecasts.

To change the map : click on the green buttons with a black cross to zoom in, on the green button with a dash to zoom out, or on the green arrows for adjacent maps.


METAR-TAF: